Bay Head, New Jersey
Current Conditions -  °F | °C
As of 11:55 PM on Monday 22 Dec 2014 (Local Time) from KBLM Reporting Station
Broken Clouds Broken Clouds  
Wind Chill: 41°   Ceiling: 7500
Heat Index: 46°   Visibility: 10mi
Dew Point: 43°   Wind: 12mph
Humidity: 87%   Direction: 80°E
Pressure: 30.1"   Gusts: NA
Location:  40.0839°N, 74.0496°W
Report Text: KBLM 230455Z AUTO 08010KT 10SM FEW004 SCT025 BKN075 08/06 A3010 RMK AO1
Loading
Personal Weather Stations






























Interactive Weather Map New forecast layout! Learn more

10-Day Weather Forecast

Advertisements
Track Severe Weather on mobile